Atlanta, Indiana
Current Conditions -  °F | °C
As of 8:15 PM on Saturday 22 Nov 2014 (Local Time) from KTYQ Reporting Station
Overcast Overcast  
Wind Chill: 13°   Ceiling: 3800
Heat Index: 13°   Visibility: 10mi
Dew Point:   Wind: 10mph
Humidity: 55%   Direction: 190°S
Pressure: 30.01"   Gusts: NA
Location:  40.22°N, 86.03°W
Report Text: KTYQ 230115Z AUTO 19009KT 10SM OVC038 13/04 A3001 RMK AO2 T01250037
Loading
Personal Weather Stations






























Interactive Weather Map New forecast layout! Learn more

10-Day Weather Forecast

Advertisements
Track Severe Weather on mobile